Accueil
METAR-TAF:

METAR-TAF

Aéroports :

Chino, Californie, États-Unis

latitude: 33-58-32N, longitude: 117-37-25W, altitude: 198 m

Observation

Le bulletin a été fait il y a 27 minutes, à 23:53 UTC
Vent 8 kt de nord-ouest
Température 21°C
Humidité 38%
Pression 1021 hPa
Visibilité: 16.1 km
Nuages épars à une hauteur de 20000 ft

METAR: KCNO 272353Z 32008KT 10SM SCT200 21/06 A3016 RMK AO2 SLP212 T02060056 10222 20117 55008

Heure: 16:20 (00:20 UTC)


TAF: absent

Observations et prévisions météorologiques de plus de 4000 aéroports (messages METAR et TAF).

Les stations disponibles sont représentées par des disques jaunes et rouges sur la carte.

Passer la souris dessus pour voir le nom de la station.

Cliquer dessus pour voir les observations et prévisions météorologiques.

Pour changer de carte: cliquez sur les boutons verts avec une croix noire pour zoomer, sur le bouton vert avec un tiret pour effectuer un zoom arrière, ou sur les flèches vertes pour les cartes adjacentes.


METAR-TAF: